Time;durP1;ratioP1;P1;durP2;ratioP2;P2;SDS_P1;SDS_P2;PMS_P1;PMS_P2;Temp;Humidity;BMP_temperature;BMP_pressure;BME280_temperature;BME280_humidity;BME280_pressure;Samples;Min_cycle;Max_cycle;Signal;HPM_P1;HPM_P2
2024/04/22 00:02:01;;;;;;;;;;;;;;;15.95;48.77;100184.31;5295089;27;1145;-48
2024/04/22 00:04:27;;;;;;;;;;;;;;;15.69;48.20;100187.25;5315595;27;1230;-48
2024/04/22 00:06:53;;;;;;;;;;;;;;;15.60;47.45;100202.03;5290157;27;1121;-45
2024/04/22 00:09:18;;;;;;;;;;;;;;;16.51;48.33;100201.16;5294494;27;1245;-47
2024/04/22 00:11:44;;;;;;;;;;;;;;;15.75;48.20;100197.34;5290288;27;1128;-47
2024/04/22 00:14:11;;;;;;;;;;;;;;;16.52;48.63;100202.84;5295777;27;2866;-45
2024/04/22 00:16:37;;;;;;;;;;;;;;;16.34;48.82;100212.28;5290553;27;1165;-46
2024/04/22 00:19:03;;;;;;;;;;;;;;;15.88;48.66;100201.72;5293921;27;1114;-48
2024/04/22 00:21:28;;;;;;;;;;;;;;;17.01;48.89;100196.25;5292408;27;1361;-49
2024/04/22 00:23:54;;;;;;;;;;;;;;;16.06;49.15;100199.44;5298451;27;1253;-46
2024/04/22 00:26:19;;;;;;;;;;;;;;;15.83;48.21;100195.91;5305435;27;1351;-44
2024/04/22 00:28:45;;;;;;;;;;;;;;;15.64;47.75;100211.47;5300788;26;1409;-47
2024/04/22 00:31:10;;;;;;;;;;;;;;;16.13;49.13;100224.50;5281125;27;1145;-48
2024/04/22 00:33:36;;;;;;;;;;;;;;;16.05;48.88;100212.81;5294487;27;1194;-49
2024/04/22 00:36:01;;;;;;;;;;;;;;;15.69;48.34;100212.91;5314060;27;1858;-45
2024/04/22 00:38:27;;;;;;;;;;;;;;;15.59;47.39;100210.13;5301233;27;1087;-47
2024/04/22 00:40:53;;;;;;;;;;;;;;;15.43;46.94;100206.03;5304769;27;1272;-48
2024/04/22 00:43:19;;;;;;;;;;;;;;;16.69;47.67;100199.75;5302059;27;2884;-47
2024/04/22 00:45:44;;;;;;;;;;;;;;;15.76;48.40;100191.09;5304335;27;1242;-45
2024/04/22 00:48:10;;;;;;;;;;;;;;;15.85;48.96;100197.47;5315027;27;1275;-48
2024/04/22 00:50:36;;;;;;;;;;;;;;;16.34;48.44;100197.22;5291833;27;1239;-46
2024/04/22 00:53:01;;;;;;;;;;;;;;;16.02;49.67;100190.88;5271518;27;1378;-45
2024/04/22 00:55:27;;;;;;;;;;;;;;;17.89;47.51;100208.38;5273352;27;1869;-50
2024/04/22 00:57:56;;;;;;;;;;;;;;;16.49;49.17;100207.53;5294295;27;1272;-44
2024/04/22 01:00:21;;;;;;;;;;;;;;;16.08;48.52;100201.97;5258728;27;1272;-45
2024/04/22 01:02:48;;;;;;;;;;;;;;;15.85;47.90;100209.91;5267861;27;1054;-48
2024/04/22 01:05:14;;;;;;;;;;;;;;;16.84;49.38;100209.13;5291746;27;1129;-47
2024/04/22 01:07:39;;;;;;;;;;;;;;;16.19;49.17;100206.41;5299501;27;1263;-49
2024/04/22 01:10:05;;;;;;;;;;;;;;;15.80;48.77;100204.94;5283059;27;1284;-50
2024/04/22 01:12:31;;;;;;;;;;;;;;;15.90;48.80;100208.56;5310212;27;2688;-45
2024/04/22 01:14:56;;;;;;;;;;;;;;;16.44;49.04;100205.28;5288983;27;1870;-44
2024/04/22 01:17:22;;;;;;;;;;;;;;;15.90;48.55;100207.72;5299944;27;1253;-43
2024/04/22 01:19:47;;;;;;;;;;;;;;;16.78;49.33;100196.34;5281280;27;1140;-46
2024/04/22 01:22:13;;;;;;;;;;;;;;;16.23;49.05;100202.53;5301444;27;1251;-45
2024/04/22 01:24:38;;;;;;;;;;;;;;;15.87;48.66;100205.31;5281024;27;1133;-47
2024/04/22 01:27:04;;;;;;;;;;;;;;;15.69;47.80;100189.88;5264047;27;1093;-46
2024/04/22 01:29:29;;;;;;;;;;;;;;;16.65;49.27;100201.81;5279303;27;1308;-46
2024/04/22 01:31:55;;;;;;;;;;;;;;;15.89;48.85;100206.03;5292008;27;1253;-44
2024/04/22 01:34:20;;;;;;;;;;;;;;;15.70;47.96;100194.22;5313239;26;1827;-46
2024/04/22 01:36:46;;;;;;;;;;;;;;;15.70;48.08;100207.47;5313995;27;1227;-48
2024/04/22 01:39:11;;;;;;;;;;;;;;;16.33;48.35;100202.66;5293999;27;1129;-47
2024/04/22 01:41:37;;;;;;;;;;;;;;;15.73;48.39;100190.50;5305601;27;1220;-46
2024/04/22 01:44:02;;;;;;;;;;;;;;;15.66;48.30;100187.47;5305976;27;2983;-44
2024/04/22 01:46:28;;;;;;;;;;;;;;;16.36;48.35;100200.59;5316593;27;1125;-45
2024/04/22 01:48:53;;;;;;;;;;;;;;;15.77;48.30;100213.16;5294349;27;1240;-49
2024/04/22 01:51:19;;;;;;;;;;;;;;;15.57;47.73;100220.00;5291477;27;1074;-45
2024/04/22 01:53:44;;;;;;;;;;;;;;;16.52;48.47;100215.25;5282809;27;1166;-50
2024/04/22 01:56:10;;;;;;;;;;;;;;;15.91;48.46;100212.91;5283243;27;1161;-45
2024/04/22 01:58:35;;;;;;;;;;;;;;;15.69;47.92;100220.84;5283001;27;1304;-48
2024/04/22 02:01:04;;;;;;;;;;;;;;;15.53;47.28;100217.59;5316680;26;1165;-46
2024/04/22 02:03:30;;;;;;;;;;;;;;;16.26;48.17;100227.03;5295328;27;1240;-47
2024/04/22 02:05:55;;;;;;;;;;;;;;;15.67;47.87;100219.19;5304211;27;1156;-48
2024/04/22 02:08:21;;;;;;;;;;;;;;;16.24;48.56;100221.00;5283646;27;1106;-46
2024/04/22 02:10:46;;;;;;;;;;;;;;;16.23;48.45;100223.78;5304398;27;1248;-48
2024/04/22 02:13:12;;;;;;;;;;;;;;;15.86;47.91;100220.41;5292521;27;2697;-47
2024/04/22 02:15:37;;;;;;;;;;;;;;;16.08;48.83;100225.84;5291976;27;1864;-47
2024/04/22 02:18:03;;;;;;;;;;;;;;;16.58;48.20;100228.03;5305707;27;1165;-46
2024/04/22 02:20:28;;;;;;;;;;;;;;;15.85;48.32;100228.47;5305717;27;1145;-45
2024/04/22 02:22:54;;;;;;;;;;;;;;;15.69;47.38;100237.63;5288934;27;1161;-50
2024/04/22 02:25:19;;;;;;;;;;;;;;;15.61;46.95;100235.56;5285457;27;1124;-45
2024/04/22 02:27:45;;;;;;;;;;;;;;;16.54;47.94;100237.22;5315283;27;978;-49
2024/04/22 02:30:11;;;;;;;;;;;;;;;15.99;48.29;100238.88;5305311;27;1678;-45
2024/04/22 02:32:36;;;;;;;;;;;;;;;15.71;47.91;100242.81;5304315;27;1169;-50
2024/04/22 02:35:02;;;;;;;;;;;;;;;15.71;48.01;100240.16;5293221;27;1822;-45
2024/04/22 02:37:27;;;;;;;;;;;;;;;16.27;48.04;100244.63;5294887;27;1121;-47
2024/04/22 02:39:53;;;;;;;;;;;;;;;15.66;48.23;100244.00;5300912;27;1177;-45
2024/04/22 02:42:18;;;;;;;;;;;;;;;15.63;47.85;100243.41;5296675;27;2698;-47
2024/04/22 02:44:44;;;;;;;;;;;;;;;16.33;48.22;100250.44;5294244;27;1207;-45
2024/04/22 02:47:09;;;;;;;;;;;;;;;15.66;48.29;100244.00;5316460;27;1169;-47
2024/04/22 02:49:35;;;;;;;;;;;;;;;15.52;47.71;100247.72;5293971;27;1302;-47
2024/04/22 02:52:00;;;;;;;;;;;;;;;15.50;46.66;100251.44;5313371;27;1058;-48
2024/04/22 02:54:28;;;;;;;;;;;;;;;16.85;47.13;100255.97;5294301;27;1878;-47
2024/04/22 02:56:56;;;;;;;;;;;;;;;15.81;48.16;100262.34;5317199;27;1248;-50
2024/04/22 02:59:22;;;;;;;;;;;;;;;15.60;47.43;100262.22;5316259;27;1224;-46
2024/04/22 03:01:50;;;;;;;;;;;;;;;16.75;47.59;100271.81;5316960;27;1177;-47
2024/04/22 03:04:16;;;;;;;;;;;;;;;15.88;48.18;100274.16;5298108;27;1366;-48
2024/04/22 03:06:41;;;;;;;;;;;;;;;15.65;47.64;100282.09;5282543;27;1287;-46
2024/04/22 03:09:07;;;;;;;;;;;;;;;15.50;46.92;100291.19;5293401;27;1311;-47
2024/04/22 03:11:32;;;;;;;;;;;;;;;16.40;47.48;100286.13;5294714;27;1272;-46
2024/04/22 03:13:58;;;;;;;;;;;;;;;15.69;47.78;100292.44;5292934;27;1835;-49
2024/04/22 03:16:24;;;;;;;;;;;;;;;15.49;47.46;100290.38;5293882;27;1351;-45
2024/04/22 03:18:49;;;;;;;;;;;;;;;16.36;47.68;100305.91;5315009;27;1137;-50
2024/04/22 03:21:15;;;;;;;;;;;;;;;15.85;47.97;100308.06;5294652;27;1475;-48
2024/04/22 03:23:40;;;;;;;;;;;;;;;15.61;47.46;100308.97;5305086;27;1393;-47
2024/04/22 03:26:06;;;;;;;;;;;;;;;15.41;46.95;100314.78;5282506;27;1165;-49
2024/04/22 03:28:31;;;;;;;;;;;;;;;16.75;47.01;100324.06;5298989;27;1256;-47
2024/04/22 03:30:57;;;;;;;;;;;;;;;15.71;47.94;100339.13;5282402;27;1185;-47
2024/04/22 03:33:22;;;;;;;;;;;;;;;16.73;47.83;100336.66;5315090;27;1157;-49
2024/04/22 03:35:47;;;;;;;;;;;;;;;16.72;48.02;100357.06;5294545;27;1822;-45
2024/04/22 03:38:14;;;;;;;;;;;;;;;15.96;48.38;100358.47;5314429;27;1259;-48
2024/04/22 03:40:40;;;;;;;;;;;;;;;15.67;47.66;100372.97;5301844;27;1127;-49
2024/04/22 03:43:05;;;;;;;;;;;;;;;16.69;47.97;100383.00;5293097;27;1283;-48
2024/04/22 03:45:31;;;;;;;;;;;;;;;15.91;48.50;100392.47;5316191;27;1163;-46
2024/04/22 03:50:40;;;;;;;;;;;;;;;15.54;46.75;100409.31;5298972;27;1110;-48
2024/04/22 03:53:09;;;;;;;;;;;;;;;15.50;47.32;100407.84;5288944;27;1157;-47
2024/04/22 03:55:34;;;;;;;;;;;;;;;16.83;47.61;100416.47;5315454;27;1864;-47
2024/04/22 03:58:00;;;;;;;;;;;;;;;15.85;48.35;100419.44;5285340;27;1214;-45
2024/04/22 04:00:26;;;;;;;;;;;;;;;17.35;47.83;100418.56;5299080;27;1252;-51
2024/04/22 04:02:51;;;;;;;;;;;;;;;16.69;48.51;100430.81;5283151;27;1196;-48
2024/04/22 04:05:17;;;;;;;;;;;;;;;17.60;46.96;100437.84;5295700;27;1152;-50
2024/04/22 04:07:42;;;;;;;;;;;;;;;17.30;47.20;100439.38;5303139;27;1523;-45
2024/04/22 04:10:08;;;;;;;;;;;;;;;16.93;47.99;100438.69;5280457;27;1118;-47
2024/04/22 04:12:33;;;;;;;;;;;;;;;16.76;48.43;100448.84;5280604;27;2935;-45
2024/04/22 04:14:59;;;;;;;;;;;;;;;16.53;48.65;100451.44;5298931;27;1868;-48
2024/04/22 04:17:24;;;;;;;;;;;;;;;16.40;49.07;100445.41;5280947;27;1303;-47
2024/04/22 04:19:50;;;;;;;;;;;;;;;16.24;49.38;100461.66;5299945;27;1201;-48
2024/04/22 04:22:15;;;;;;;;;;;;;;;16.03;49.79;100460.53;5292946;27;1313;-48
2024/04/22 04:24:41;;;;;;;;;;;;;;;15.96;49.79;100459.28;5288742;27;1228;-46
2024/04/22 04:27:06;;;;;;;;;;;;;;;15.83;50.04;100475.25;5308119;27;1206;-49
2024/04/22 04:29:32;;;;;;;;;;;;;;;16.95;48.00;100479.25;5298345;27;1367;-49
2024/04/22 04:31:57;;;;;;;;;;;;;;;17.36;46.92;100487.59;5308941;27;1208;-47
2024/04/22 04:34:23;;;;;;;;;;;;;;;16.64;48.56;100484.31;5281015;27;1822;-46
2024/04/22 04:36:48;;;;;;;;;;;;;;;16.33;49.15;100491.97;5303581;27;1133;-48
2024/04/22 04:39:14;;;;;;;;;;;;;;;16.13;49.67;100486.38;5281616;27;1160;-45
2024/04/22 04:41:39;;;;;;;;;;;;;;;15.98;49.91;100498.97;5288146;27;2791;-49
2024/04/22 04:44:05;;;;;;;;;;;;;;;16.69;48.74;100481.28;5280923;27;1173;-48
2024/04/22 04:46:30;;;;;;;;;;;;;;;17.67;45.89;100488.69;5280753;27;1276;-46
2024/04/22 04:48:56;;;;;;;;;;;;;;;16.81;48.27;100482.16;5280631;27;1083;-46
2024/04/22 04:51:21;;;;;;;;;;;;;;;16.38;49.02;100485.34;5281298;27;1271;-48
2024/04/22 04:53:47;;;;;;;;;;;;;;;16.17;49.57;100487.81;5314488;27;1239;-45
2024/04/22 04:56:13;;;;;;;;;;;;;;;15.97;49.90;100491.94;5314244;27;1900;-46
2024/04/22 04:58:38;;;;;;;;;;;;;;;17.10;47.68;100503.78;5314335;27;1133;-47
2024/04/22 05:01:04;;;;;;;;;;;;;;;17.41;46.65;100489.00;5314282;26;1212;-49
2024/04/22 05:03:29;;;;;;;;;;;;;;;16.72;48.48;100492.53;5300700;27;1241;-47
2024/04/22 05:05:58;;;;;;;;;;;;;;;16.38;49.16;100495.97;5291231;26;1319;-51
2024/04/22 05:08:24;;;;;;;;;;;;;;;16.16;49.56;100496.75;5297165;27;1223;-51
2024/04/22 05:10:49;;;;;;;;;;;;;;;17.29;47.53;100504.13;5302347;27;1348;-48
2024/04/22 05:13:15;;;;;;;;;;;;;;;17.36;46.83;100505.34;5296210;27;2204;-51
2024/04/22 05:15:40;;;;;;;;;;;;;;;16.72;48.33;100508.47;5293543;27;1830;-46
2024/04/22 05:18:06;;;;;;;;;;;;;;;16.37;48.96;100512.00;5301677;27;1223;-49
2024/04/22 05:20:31;;;;;;;;;;;;;;;16.25;49.23;100506.66;5298793;27;1224;-46
2024/04/22 05:22:57;;;;;;;;;;;;;;;16.38;49.41;100519.03;5292077;27;1147;-47
2024/04/22 05:25:23;;;;;;;;;;;;;;;17.74;46.39;100517.34;5317365;27;1155;-48
2024/04/22 05:27:48;;;;;;;;;;;;;;;16.88;47.66;100529.34;5296050;27;1125;-45
2024/04/22 05:30:14;;;;;;;;;;;;;;;16.44;49.03;100533.63;5282379;27;1340;-48
2024/04/22 05:32:39;;;;;;;;;;;;;;;16.19;49.63;100528.38;5305278;27;1208;-49
2024/04/22 05:37:49;;;;;;;;;;;;;;;18.01;45.80;100530.31;5312062;27;1134;-50
2024/04/22 05:40:14;;;;;;;;;;;;;;;17.77;46.98;100526.88;5289838;27;1166;-45
2024/04/22 05:42:40;;;;;;;;;;;;;;;17.37;47.72;100529.16;5292665;27;2300;-44
2024/04/22 05:45:05;;;;;;;;;;;;;;;17.54;48.02;100534.91;5288644;26;1282;-49
2024/04/22 05:47:31;;;;;;;;;;;;;;;16.43;49.82;100534.59;5303588;27;1193;-45
2024/04/22 05:49:56;;;;;;;;;;;;;;;16.16;50.62;100544.53;5316109;27;1081;-47
2024/04/22 05:52:22;;;;;;;;;;;;;;;15.97;50.72;100545.84;5297478;27;1161;-44
2024/04/22 05:54:47;;;;;;;;;;;;;;;16.13;50.35;100561.50;5315064;27;1829;-47
2024/04/22 05:57:13;;;;;;;;;;;;;;;16.43;50.76;100561.16;5291783;27;1270;-48
2024/04/22 05:59:38;;;;;;;;;;;;;;;17.42;48.19;100552.69;5299526;27;1300;-46
2024/04/22 06:02:04;;;;;;;;;;;;;;;16.52;50.05;100566.63;5292149;27;1191;-45
2024/04/22 06:04:31;;;;;;;;;;;;;;;16.16;50.64;100565.75;5309090;27;1209;-47
2024/04/22 06:06:56;;;;;;;;;;;;;;;15.91;51.11;100562.22;5293820;27;1221;-47
2024/04/22 06:09:22;;;;;;;;;;;;;;;15.81;51.29;100572.66;5316253;27;1188;-49
2024/04/22 06:11:48;;;;;;;;;;;;;;;16.22;50.89;100572.41;5291890;27;2653;-46
2024/04/22 06:14:14;;;;;;;;;;;;;;;17.56;47.85;100575.53;5282850;27;1855;-53
2024/04/22 06:16:39;;;;;;;;;;;;;;;16.83;49.22;100573.19;5281685;27;1142;-44
2024/04/22 06:19:05;;;;;;;;;;;;;;;16.36;50.22;100580.22;5279275;27;1302;-46
2024/04/22 06:21:31;;;;;;;;;;;;;;;16.06;50.80;100576.22;5268946;27;1159;-49
2024/04/22 06:23:56;;;;;;;;;;;;;;;16.12;51.01;100583.72;5313618;27;1085;-51
2024/04/22 06:26:22;;;;;;;;;;;;;;;17.61;47.52;100593.78;5289478;27;1450;-50
2024/04/22 06:28:47;;;;;;;;;;;;;;;17.10;48.50;100586.19;5292315;27;1586;-52
2024/04/22 06:31:13;;;;;;;;;;;;;;;16.81;49.04;100593.72;5292952;27;1241;-53
2024/04/22 06:33:42;;;;;;;;;;;;;;;16.31;50.37;100592.13;5302068;27;1121;-51
2024/04/22 06:36:11;;;;;;;;;;;;;;;16.05;50.56;100594.91;5304907;27;1858;-47
2024/04/22 06:38:36;;;;;;;;;;;;;;;15.99;50.91;100601.50;5298149;27;1240;-47
2024/04/22 06:41:02;;;;;;;;;;;;;;;15.79;51.01;100607.25;5302790;27;1121;-52
2024/04/22 06:43:28;;;;;;;;;;;;;;;17.09;49.25;100611.06;5282036;27;2946;-50
2024/04/22 06:45:53;;;;;;;;;;;;;;;17.44;47.81;100609.28;5304924;27;1224;-50
2024/04/22 06:48:19;;;;;;;;;;;;;;;16.65;49.93;100626.75;5297967;27;1121;-51
2024/04/22 06:50:46;;;;;;;;;;;;;;;16.21;50.54;100619.34;5287672;27;1126;-53
2024/04/22 06:53:11;;;;;;;;;;;;;;;16.00;51.01;100621.75;5289108;27;1268;-54
2024/04/22 06:55:37;;;;;;;;;;;;;;;15.87;51.26;100622.63;5304607;27;1864;-53
2024/04/22 06:58:02;;;;;;;;;;;;;;;16.02;51.08;100619.84;5252574;27;1165;-49
2024/04/22 07:00:28;;;;;;;;;;;;;;;17.45;48.28;100626.09;5292785;27;1244;-55
2024/04/22 07:02:55;;;;;;;;;;;;;;;16.90;48.76;100627.53;5296976;27;1308;-56
2024/04/22 07:05:20;;;;;;;;;;;;;;;16.47;49.95;100637.81;5290562;27;1213;-51
2024/04/22 07:07:46;;;;;;;;;;;;;;;16.12;50.71;100646.53;5297949;27;1351;-50
2024/04/22 07:10:11;;;;;;;;;;;;;;;16.02;50.73;100644.56;5315685;26;1188;-51
2024/04/22 07:12:37;;;;;;;;;;;;;;;15.87;51.02;100651.81;5315878;27;2847;-51
2024/04/22 07:15:04;;;;;;;;;;;;;;;17.08;49.25;100651.84;5292507;27;1822;-53
2024/04/22 07:17:31;;;;;;;;;;;;;;;17.22;48.06;100647.31;5297952;27;1286;-50
2024/04/22 07:19:56;;;;;;;;;;;;;;;16.48;49.81;100652.75;5287870;27;1182;-50
2024/04/22 07:22:27;;;;;;;;;;;;;;;16.30;50.32;100672.72;5294269;27;1325;-50
2024/04/22 07:24:52;;;;;;;;;;;;;;;16.07;50.77;100680.53;5303442;27;1314;-47
2024/04/22 07:27:18;;;;;;;;;;;;;;;15.79;51.02;100676.22;5266851;27;1134;-48
2024/04/22 07:29:44;;;;;;;;;;;;;;;15.89;51.40;100680.88;5296412;26;1572;-50
2024/04/22 07:32:10;;;;;;;;;;;;;;;17.32;48.19;100672.22;5315383;27;1155;-50
2024/04/22 07:34:35;;;;;;;;;;;;;;;17.41;47.93;100677.81;5308395;27;1837;-49
2024/04/22 07:37:08;;;;;;;;;;;;;;;16.51;49.76;100687.06;5300962;27;1286;-48
2024/04/22 07:39:34;;;;;;;;;;;;;;;16.23;50.54;100683.75;5305517;27;1410;-51
2024/04/22 07:41:59;;;;;;;;;;;;;;;16.01;50.97;100700.41;5292778;27;2659;-47
2024/04/22 07:44:26;;;;;;;;;;;;;;;16.69;50.02;100705.25;5280210;27;1197;-46
2024/04/22 07:46:52;;;;;;;;;;;;;;;17.53;47.40;100707.91;5303355;27;1157;-52
2024/04/22 07:49:17;;;;;;;;;;;;;;;16.69;49.24;100725.66;5290799;27;1466;-50
2024/04/22 07:51:43;;;;;;;;;;;;;;;16.35;50.31;100731.66;5280667;27;1235;-49
2024/04/22 07:54:08;;;;;;;;;;;;;;;16.06;50.99;100729.25;5301268;27;1835;-48
2024/04/22 07:56:34;;;;;;;;;;;;;;;16.01;50.94;100733.09;5292889;27;1129;-50
2024/04/22 07:59:00;;;;;;;;;;;;;;;16.68;49.91;100737.25;5314736;27;1272;-50
2024/04/22 08:01:25;;;;;;;;;;;;;;;17.64;47.27;100739.84;5291385;27;1149;-50
2024/04/22 08:03:51;;;;;;;;;;;;;;;16.73;49.39;100735.94;5314440;27;1264;-54
2024/04/22 08:06:17;;;;;;;;;;;;;;;16.31;50.27;100738.97;5303977;27;1176;-52
2024/04/22 08:08:42;;;;;;;;;;;;;;;16.10;50.56;100741.38;5314603;27;1279;-50
2024/04/22 08:11:08;;;;;;;;;;;;;;;15.99;50.94;100747.41;5303877;27;1192;-53
2024/04/22 08:13:34;;;;;;;;;;;;;;;15.84;51.21;100736.06;5293399;27;3348;-50
2024/04/22 08:15:59;;;;;;;;;;;;;;;16.50;50.56;100730.50;5280222;27;1875;-50
2024/04/22 08:18:25;;;;;;;;;;;;;;;17.63;47.92;100732.84;5280521;27;962;-51
2024/04/22 08:20:50;;;;;;;;;;;;;;;16.63;49.73;100733.09;5297768;27;1228;-53
2024/04/22 08:23:16;;;;;;;;;;;;;;;16.36;50.44;100743.94;5303866;27;1169;-52
2024/04/22 08:25:42;;;;;;;;;;;;;;;16.05;50.97;100751.47;5281380;27;1147;-52
2024/04/22 08:28:07;;;;;;;;;;;;;;;15.95;51.09;100748.56;5307306;27;1356;-53
2024/04/22 08:30:33;;;;;;;;;;;;;;;15.82;51.52;100761.81;5306577;26;1482;-49
2024/04/22 08:33:00;;;;;;;;;;;;;;;16.18;51.13;100754.94;5287058;27;1294;-53
2024/04/22 08:35:25;;;;;;;;;;;;;;;17.55;47.73;100744.06;5280909;27;1831;-52
2024/04/22 08:37:51;;;;;;;;;;;;;;;16.82;49.14;100760.13;5307287;27;1258;-53
2024/04/22 08:40:16;;;;;;;;;;;;;;;16.47;50.29;100762.59;5313990;27;1168;-53
2024/04/22 08:42:42;;;;;;;;;;;;;;;16.14;50.91;100766.72;5312593;27;2771;-54
2024/04/22 08:45:07;;;;;;;;;;;;;;;15.89;51.42;100786.97;5298803;27;1117;-53
2024/04/22 08:47:33;;;;;;;;;;;;;;;16.75;50.05;100788.94;5280438;27;1243;-51
2024/04/22 08:49:59;;;;;;;;;;;;;;;17.38;48.24;100794.06;5266238;27;1174;-51
2024/04/22 08:52:25;;;;;;;;;;;;;;;16.51;50.12;100792.44;5287475;27;1205;-54
2024/04/22 08:54:50;;;;;;;;;;;;;;;16.13;51.13;100780.94;5304273;27;1878;-50
2024/04/22 08:57:16;;;;;;;;;;;;;;;16.02;51.28;100792.31;5314555;27;1259;-51
2024/04/22 08:59:41;;;;;;;;;;;;;;;15.93;51.20;100790.28;5297414;27;1300;-51
2024/04/22 09:02:07;;;;;;;;;;;;;;;15.79;51.51;100802.69;5280616;27;1230;-48
2024/04/22 09:04:32;;;;;;;;;;;;;;;17.17;48.89;100796.53;5280373;27;1198;-50
2024/04/22 09:07:03;;;;;;;;;;;;;;;17.19;48.41;100801.75;5284384;27;1276;-50
2024/04/22 09:09:28;;;;;;;;;;;;;;;16.46;50.10;100808.72;5296722;27;1184;-46
2024/04/22 09:11:54;;;;;;;;;;;;;;;16.22;50.75;100820.09;5299304;27;2696;-48
2024/04/22 09:14:19;;;;;;;;;;;;;;;16.07;50.95;100808.75;5283284;27;1830;-50
2024/04/22 09:16:45;;;;;;;;;;;;;;;15.88;51.13;100825.91;5298975;27;1109;-52
2024/04/22 09:19:19;;;;;;;;;;;;;;;16.81;49.93;100828.38;5286717;27;1061;-51
2024/04/22 09:21:44;;;;;;;;;;;;;;;17.29;47.88;100818.72;5287864;27;1221;-51
2024/04/22 09:24:11;;;;;;;;;;;;;;;16.52;50.00;100836.63;5279685;27;1228;-53
2024/04/22 09:26:37;;;;;;;;;;;;;;;16.17;50.96;100843.47;5301802;27;1367;-53
2024/04/22 09:29:03;;;;;;;;;;;;;;;15.97;51.10;100847.47;5297133;27;1363;-52
2024/04/22 09:31:29;;;;;;;;;;;;;;;15.94;51.09;100845.88;5278198;27;1067;-53
2024/04/22 09:33:56;;;;;;;;;;;;;;;15.78;51.50;100841.63;5304224;27;1862;-50
2024/04/22 09:36:21;;;;;;;;;;;;;;;15.70;51.52;100843.94;5253522;27;1221;-53
2024/04/22 09:38:47;;;;;;;;;;;;;;;16.86;49.40;100844.81;5301284;27;1110;-55
2024/04/22 09:41:12;;;;;;;;;;;;;;;17.28;48.05;100838.28;5281625;27;2762;-52
2024/04/22 09:43:38;;;;;;;;;;;;;;;16.53;49.89;100839.16;5290313;27;1149;-51
2024/04/22 09:46:04;;;;;;;;;;;;;;;16.18;50.83;100844.31;5291021;27;1231;-53
2024/04/22 09:48:29;;;;;;;;;;;;;;;16.00;51.02;100844.63;5279109;27;1298;-52
2024/04/22 09:50:56;;;;;;;;;;;;;;;15.90;51.36;100833.75;5300385;27;1264;-54
2024/04/22 09:53:21;;;;;;;;;;;;;;;16.73;49.62;100851.97;5302234;27;1157;-52
2024/04/22 09:55:47;;;;;;;;;;;;;;;17.70;47.29;100845.78;5310055;27;1870;-55
2024/04/22 09:58:12;;;;;;;;;;;;;;;16.76;49.54;100849.09;5303389;27;1152;-52
2024/04/22 10:00:38;;;;;;;;;;;;;;;16.36;50.41;100852.78;5280753;27;1210;-54
2024/04/22 10:03:03;;;;;;;;;;;;;;;16.13;50.82;100842.00;5279209;27;1507;-53
2024/04/22 10:05:29;;;;;;;;;;;;;;;15.99;51.05;100857.06;5284093;27;1380;-53
2024/04/22 10:07:57;;;;;;;;;;;;;;;15.90;51.12;100855.84;5255127;27;1263;-53
2024/04/22 10:10:23;;;;;;;;;;;;;;;16.85;49.69;100869.69;5304307;27;1217;-52
2024/04/22 10:12:48;;;;;;;;;;;;;;;17.44;47.64;100853.94;5309054;27;2163;-55
2024/04/22 10:15:15;;;;;;;;;;;;;;;16.56;49.90;100861.16;5267740;27;1834;-51
2024/04/22 10:17:42;;;;;;;;;;;;;;;16.20;50.76;100868.97;5283864;27;1301;-49
2024/04/22 10:20:07;;;;;;;;;;;;;;;16.08;51.11;100868.00;5308310;27;1180;-53
2024/04/22 10:22:39;;;;;;;;;;;;;;;15.93;51.16;100861.91;5290511;27;1274;-52
2024/04/22 10:25:11;;;;;;;;;;;;;;;15.81;51.47;100856.50;5301520;27;1290;-52
2024/04/22 10:27:40;;;;;;;;;;;;;;;15.73;51.31;100866.78;5302568;27;1267;-54
2024/04/22 10:30:06;;;;;;;;;;;;;;;16.79;49.88;100874.59;5288750;27;1473;-48
2024/04/22 10:32:32;;;;;;;;;;;;;;;17.73;47.45;100873.97;5299079;27;1368;-52
2024/04/22 10:34:58;;;;;;;;;;;;;;;16.79;49.43;100878.09;5277707;27;1879;-51
2024/04/22 10:37:25;;;;;;;;;;;;;;;16.33;50.74;100879.56;5312033;27;1225;-50
2024/04/22 10:39:50;;;;;;;;;;;;;;;16.04;51.09;100885.94;5300970;27;1245;-50
2024/04/22 10:42:17;;;;;;;;;;;;;;;15.96;51.32;100883.78;5297673;27;2803;-51
2024/04/22 10:44:43;;;;;;;;;;;;;;;16.23;51.10;100895.28;5268685;27;1244;-50
2024/04/22 10:47:09;;;;;;;;;;;;;;;17.60;48.15;100884.72;5314854;27;1274;-53
2024/04/22 10:49:34;;;;;;;;;;;;;;;16.96;49.05;100891.97;5298920;27;1429;-53
2024/04/22 10:52:00;;;;;;;;;;;;;;;16.39;50.20;100876.47;5296570;27;1508;-54
2024/04/22 10:54:25;;;;;;;;;;;;;;;16.19;50.82;100892.00;5290960;27;1876;-54
2024/04/22 10:56:51;;;;;;;;;;;;;;;16.02;51.09;100895.78;5288499;27;1418;-51
2024/04/22 10:59:17;;;;;;;;;;;;;;;15.95;51.21;100889.19;5314886;27;1318;-46
2024/04/22 11:01:42;;;;;;;;;;;;;;;15.90;51.66;100897.44;5256227;27;1244;-47
2024/04/22 11:04:08;;;;;;;;;;;;;;;17.40;48.65;100907.47;5297921;27;1485;-49
2024/04/22 11:06:36;;;;;;;;;;;;;;;16.85;49.50;100906.06;5302178;27;1381;-50
2024/04/22 11:09:02;;;;;;;;;;;;;;;16.35;50.55;100910.34;5295062;27;1382;-50
2024/04/22 11:11:28;;;;;;;;;;;;;;;16.24;50.87;100919.06;5300721;27;2701;-52
2024/04/22 11:13:53;;;;;;;;;;;;;;;16.02;51.49;100922.31;5313786;27;1279;-51
2024/04/22 11:16:20;;;;;;;;;;;;;;;15.89;51.68;100904.56;5315302;27;1836;-49
2024/04/22 11:18:46;;;;;;;;;;;;;;;16.53;50.87;100913.53;5288321;27;1189;-50
2024/04/22 11:21:11;;;;;;;;;;;;;;;17.73;47.96;100905.91;5307295;27;1228;-51
2024/04/22 11:23:37;;;;;;;;;;;;;;;16.90;49.53;100909.19;5303847;27;1310;-53
2024/04/22 11:26:02;;;;;;;;;;;;;;;16.47;50.59;100916.63;5255625;27;1300;-50
2024/04/22 11:28:28;;;;;;;;;;;;;;;16.23;51.15;100900.59;5264604;27;1382;-51
2024/04/22 11:30:53;;;;;;;;;;;;;;;16.06;51.36;100905.25;5290851;27;1414;-54
2024/04/22 11:33:22;;;;;;;;;;;;;;;15.87;51.61;100903.81;5300810;27;1299;-51
2024/04/22 11:35:49;;;;;;;;;;;;;;;15.81;51.65;100895.41;5314817;27;1837;-51
2024/04/22 11:38:18;;;;;;;;;;;;;;;16.60;50.62;100910.44;5264121;27;1367;-54
2024/04/22 11:40:44;;;;;;;;;;;;;;;17.71;48.00;100907.84;5261371;27;1459;-51
2024/04/22 11:43:13;;;;;;;;;;;;;;;16.80;49.42;100906.34;5304038;27;2835;-53
2024/04/22 11:45:38;;;;;;;;;;;;;;;16.39;50.71;100905.69;5292241;27;1214;-52
2024/04/22 11:48:04;;;;;;;;;;;;;;;16.19;50.90;100904.41;5292465;27;1339;-52
2024/04/22 11:50:29;;;;;;;;;;;;;;;15.98;51.40;100912.84;5314806;27;1211;-51
2024/04/22 11:52:55;;;;;;;;;;;;;;;15.92;51.46;100911.47;5314123;27;1235;-52
2024/04/22 11:55:21;;;;;;;;;;;;;;;15.81;51.64;100916.63;5280057;27;1821;-51
2024/04/22 11:57:46;;;;;;;;;;;;;;;16.99;49.39;100913.00;5310417;27;1149;-53
2024/04/22 12:00:12;;;;;;;;;;;;;;;17.33;48.14;100920.38;5289282;27;1355;-52
2024/04/22 12:02:37;;;;;;;;;;;;;;;16.60;50.35;100915.75;5286828;27;1435;-53
2024/04/22 12:05:08;;;;;;;;;;;;;;;16.20;51.01;100920.22;5289665;27;1239;-51
2024/04/22 12:07:36;;;;;;;;;;;;;;;16.08;51.31;100911.28;5299405;27;1556;-50
2024/04/22 12:10:02;;;;;;;;;;;;;;;15.86;51.54;100922.50;5288195;27;1267;-48
2024/04/22 12:12:28;;;;;;;;;;;;;;;15.84;51.55;100916.44;5290238;27;2655;-49
2024/04/22 12:14:53;;;;;;;;;;;;;;;16.02;51.59;100919.69;5297806;27;1833;-50
2024/04/22 12:17:21;;;;;;;;;;;;;;;17.35;48.79;100919.28;5313961;27;1579;-52
2024/04/22 12:19:47;;;;;;;;;;;;;;;17.16;48.58;100916.28;5312562;27;1117;-53
2024/04/22 12:22:12;;;;;;;;;;;;;;;16.51;50.33;100920.75;5298482;27;1406;-51
2024/04/22 12:24:38;;;;;;;;;;;;;;;16.24;51.11;100913.75;5275979;27;1215;-50
2024/04/22 12:27:04;;;;;;;;;;;;;;;16.01;51.28;100913.53;5261457;27;1395;-53
2024/04/22 12:29:29;;;;;;;;;;;;;;;15.90;51.65;100916.88;5313822;26;1425;-51
2024/04/22 12:31:55;;;;;;;;;;;;;;;15.86;51.47;100912.75;5296251;27;1411;-52
2024/04/22 12:34:20;;;;;;;;;;;;;;;15.72;52.06;100921.59;5263565;27;1846;-53
2024/04/22 12:36:46;;;;;;;;;;;;;;;17.11;49.28;100917.47;5306129;27;1227;-51
2024/04/22 12:39:11;;;;;;;;;;;;;;;17.46;48.03;100922.97;5310668;27;1310;-52
2024/04/22 12:41:37;;;;;;;;;;;;;;;16.60;50.21;100905.97;5305084;27;2675;-50
2024/04/22 12:44:02;;;;;;;;;;;;;;;17.20;48.82;100915.94;5280159;27;1345;-53
2024/04/22 12:46:29;;;;;;;;;;;;;;;17.46;49.84;100913.19;5282391;27;1130;-51